sensor_id;sensor_type;location;lat;lon;timestamp;P1;durP1;ratioP1;P2;durP2;ratioP2
45760;SDS011;31471;51.040;14.414;2023-02-18T20:55:50;3.53;;;2.08;;
45760;SDS011;31471;51.040;14.414;2023-02-18T20:58:15;3.92;;;2.30;;
45760;SDS011;31471;51.040;14.414;2023-02-18T21:00:41;3.55;;;2.22;;
45760;SDS011;31471;51.040;14.414;2023-02-18T21:03:07;2.70;;;2.08;;
45760;SDS011;31471;51.040;14.414;2023-02-18T21:05:33;3.20;;;2.08;;
45760;SDS011;31471;51.040;14.414;2023-02-18T21:07:58;4.97;;;3.28;;
45760;SDS011;31471;51.040;14.414;2023-02-18T21:10:24;2.50;;;2.10;;
45760;SDS011;31471;51.040;14.414;2023-02-18T21:12:49;6.47;;;2.70;;
45760;SDS011;31471;51.040;14.414;2023-02-18T21:15:15;4.00;;;2.70;;
45760;SDS011;31471;51.040;14.414;2023-02-18T21:17:40;3.05;;;2.53;;
45760;SDS011;31471;51.040;14.414;2023-02-18T21:20:06;3.17;;;2.47;;
45760;SDS011;31471;51.040;14.414;2023-02-18T21:22:32;3.33;;;2.17;;
45760;SDS011;31471;51.040;14.414;2023-02-18T21:24:57;3.58;;;2.80;;
45760;SDS011;31471;51.040;14.414;2023-02-18T21:27:24;4.05;;;2.83;;
45760;SDS011;31471;51.040;14.414;2023-02-18T21:29:49;6.07;;;2.50;;
45760;SDS011;31471;51.040;14.414;2023-02-18T21:32:15;2.80;;;2.22;;
45760;SDS011;31471;51.040;14.414;2023-02-18T21:34:41;4.22;;;2.95;;
45760;SDS011;31471;51.040;14.414;2023-02-18T21:37:06;3.42;;;2.42;;
45760;SDS011;31471;51.040;14.414;2023-02-18T21:39:32;3.80;;;2.42;;
45760;SDS011;31471;51.040;14.414;2023-02-18T21:41:57;3.80;;;2.45;;
45760;SDS011;31471;51.040;14.414;2023-02-18T21:44:24;4.20;;;3.15;;
45760;SDS011;31471;51.040;14.414;2023-02-18T21:46:49;5.32;;;2.75;;
45760;SDS011;31471;51.040;14.414;2023-02-18T21:49:15;4.97;;;2.60;;
45760;SDS011;31471;51.040;14.414;2023-02-18T21:51:42;5.22;;;2.42;;
45760;SDS011;31471;51.040;14.414;2023-02-18T21:54:23;3.67;;;2.60;;
45760;SDS011;31471;51.040;14.414;2023-02-18T21:56:50;6.57;;;2.50;;
45760;SDS011;31471;51.040;14.414;2023-02-18T21:59:17;2.65;;;2.15;;
45760;SDS011;31471;51.040;14.414;2023-02-18T22:01:43;3.33;;;1.90;;
45760;SDS011;31471;51.040;14.414;2023-02-18T22:04:09;4.85;;;2.17;;
45760;SDS011;31471;51.040;14.414;2023-02-18T22:06:35;3.15;;;2.33;;
45760;SDS011;31471;51.040;14.414;2023-02-18T22:09:02;4.40;;;2.47;;
45760;SDS011;31471;51.040;14.414;2023-02-18T22:11:28;5.60;;;2.67;;
45760;SDS011;31471;51.040;14.414;2023-02-18T22:13:54;4.05;;;2.70;;
45760;SDS011;31471;51.040;14.414;2023-02-18T22:16:19;5.55;;;2.97;;
45760;SDS011;31471;51.040;14.414;2023-02-18T22:18:45;4.60;;;2.40;;
45760;SDS011;31471;51.040;14.414;2023-02-18T22:21:10;4.55;;;2.83;;
45760;SDS011;31471;51.040;14.414;2023-02-18T22:23:36;3.38;;;2.53;;
45760;SDS011;31471;51.040;14.414;2023-02-18T22:26:06;3.53;;;2.70;;
45760;SDS011;31471;51.040;14.414;2023-02-18T22:28:32;5.07;;;2.50;;
45760;SDS011;31471;51.040;14.414;2023-02-18T22:33:25;3.97;;;2.50;;
45760;SDS011;31471;51.040;14.414;2023-02-18T22:35:51;4.35;;;2.20;;
45760;SDS011;31471;51.040;14.414;2023-02-18T22:38:17;2.70;;;2.13;;
45760;SDS011;31471;51.040;14.414;2023-02-18T22:40:42;3.13;;;2.22;;
45760;SDS011;31471;51.040;14.414;2023-02-18T22:43:08;3.08;;;2.83;;
45760;SDS011;31471;51.040;14.414;2023-02-18T22:45:36;3.67;;;3.10;;
45760;SDS011;31471;51.040;14.414;2023-02-18T22:48:02;4.68;;;2.92;;
45760;SDS011;31471;51.040;14.414;2023-02-18T22:50:28;3.60;;;2.63;;
45760;SDS011;31471;51.040;14.414;2023-02-18T22:52:53;3.85;;;2.60;;
45760;SDS011;31471;51.040;14.414;2023-02-18T22:55:19;5.50;;;2.85;;
45760;SDS011;31471;51.040;14.414;2023-02-18T22:57:44;6.43;;;3.08;;
45760;SDS011;31471;51.040;14.414;2023-02-18T23:00:10;5.18;;;2.95;;
45760;SDS011;31471;51.040;14.414;2023-02-18T23:02:36;4.38;;;3.05;;
45760;SDS011;31471;51.040;14.414;2023-02-18T23:05:02;4.75;;;3.45;;
45760;SDS011;31471;51.040;14.414;2023-02-18T23:07:27;6.90;;;3.55;;
45760;SDS011;31471;51.040;14.414;2023-02-18T23:09:53;6.35;;;3.53;;
45760;SDS011;31471;51.040;14.414;2023-02-18T23:12:18;5.30;;;3.20;;
45760;SDS011;31471;51.040;14.414;2023-02-18T23:14:44;6.30;;;3.70;;
45760;SDS011;31471;51.040;14.414;2023-02-18T23:17:09;6.32;;;4.07;;
45760;SDS011;31471;51.040;14.414;2023-02-18T23:19:38;5.65;;;3.60;;
45760;SDS011;31471;51.040;14.414;2023-02-18T23:22:05;5.78;;;3.67;;
45760;SDS011;31471;51.040;14.414;2023-02-18T23:24:33;5.30;;;3.20;;
45760;SDS011;31471;51.040;14.414;2023-02-18T23:26:59;7.82;;;3.33;;
45760;SDS011;31471;51.040;14.414;2023-02-18T23:29:25;3.60;;;2.80;;
45760;SDS011;31471;51.040;14.414;2023-02-18T23:31:51;4.80;;;3.08;;
45760;SDS011;31471;51.040;14.414;2023-02-18T23:34:16;3.88;;;2.70;;
45760;SDS011;31471;51.040;14.414;2023-02-18T23:36:42;4.90;;;3.25;;
45760;SDS011;31471;51.040;14.414;2023-02-18T23:41:34;3.75;;;2.55;;
45760;SDS011;31471;51.040;14.414;2023-02-18T23:44:04;3.90;;;2.92;;
45760;SDS011;31471;51.040;14.414;2023-02-18T23:46:31;3.83;;;2.90;;
45760;SDS011;31471;51.040;14.414;2023-02-18T23:48:57;5.30;;;3.17;;
45760;SDS011;31471;51.040;14.414;2023-02-18T23:53:49;5.20;;;2.50;;
45760;SDS011;31471;51.040;14.414;2023-02-18T23:56:16;4.57;;;2.90;;
45760;SDS011;31471;51.040;14.414;2023-02-18T23:58:47;4.60;;;2.80;;
